Accueil
METAR-TAF:

METAR-TAF

Aéroports :

Zonguldak, Turquie

latitude: 41-27N, longitude: 031-48E, altitude: 136 m

Observation

Le bulletin a été fait il y a 46 minutes, à 09:50 UTC
Vent 10 kt de nord, variant entre nord-ouest et nord
Température 28°C
Humidité 66%
Pression 1009 hPa
Visibilité 10 km ou plus
Quelques nuages à une hauteur de 3500 ft

METAR: LTAS 160950Z 35010KT 310V010 9999 FEW035 28/21 Q1009

Heure: 13:36 (10:36 UTC)

Prévision

Le bulletin a été fait il y a 2 heures et 56 minutes, à 07:40 UTC
Prévision valable du 16 à 09 UTC au 16 à 18 UTC
Vent 2 kt de direction variable
Visibilité 10 km ou plus
Nuages épars à une hauteur de 4000 ft
Temporairement
du 16 à 09 UTC au 16 à 13 UTC
Vent 12 kt de nord/nord-ouest

TAF: LTAS 160740Z 1609/1618 VRB02KT 9999 SCT040 TEMPO 1609/1613 34012KT

Observations et prévisions météorologiques de plus de 4000 aéroports (messages METAR et TAF).

Les stations disponibles sont représentées par des disques jaunes et rouges sur la carte.

Passer la souris dessus pour voir le nom de la station.

Cliquer dessus pour voir les observations et prévisions météorologiques.

Pour changer de carte: cliquez sur les boutons verts avec une croix noire pour zoomer, sur le bouton vert avec un tiret pour effectuer un zoom arrière, ou sur les flèches vertes pour les cartes adjacentes.


METAR-TAF: